Time;durP1;ratioP1;P1;durP2;ratioP2;P2;SDS_P1;SDS_P2;PMS_P1;PMS_P2;Temp;Humidity;BMP_temperature;BMP_pressure;BME280_temperature;BME280_humidity;BME280_pressure;Samples;Min_cycle;Max_cycle;Signal;HPM_P1;HPM_P2
2022/08/23 00:01:49;;;;;;;1.03;0.70;;;;;;;24.83;39.67;101348.00;4956294;28;97605;-49
2022/08/23 00:04:17;;;;;;;1.50;1.13;;;;;;;24.81;39.92;101354.22;4956394;28;96740;-48
2022/08/23 00:06:45;;;;;;;1.77;1.00;;;;;;;24.78;40.07;101355.38;4961558;28;96921;-48
2022/08/23 00:09:12;;;;;;;1.00;0.87;;;;;;;24.78;40.21;101355.38;4957652;28;97383;-48
2022/08/23 00:11:45;;;;;;;1.53;1.10;;;;;;;24.76;40.16;101352.38;4956210;28;97347;-48
2022/08/23 00:14:32;;;;;;;0.90;0.77;;;;;;;24.71;40.51;101358.94;4954290;28;97264;-49
2022/08/23 00:16:58;;;;;;;1.83;1.00;;;;;;;24.69;39.92;101349.59;4953218;28;97232;-48
2022/08/23 00:19:25;;;;;;;1.10;0.97;;;;;;;24.66;39.97;101351.47;4952738;28;97049;-48
2022/08/23 00:21:53;;;;;;;2.07;1.10;;;;;;;24.65;40.42;101355.63;4956420;28;98100;-48
2022/08/23 00:24:19;;;;;;;1.20;1.10;;;;;;;24.62;40.39;101351.13;4955455;28;97377;-48
2022/08/23 00:26:55;;;;;;;1.30;0.93;;;;;;;24.63;40.96;101351.88;4952100;28;97021;-48
2022/08/23 00:29:24;;;;;;;1.33;1.00;;;;;;;24.58;40.49;101360.00;4956628;28;96799;-48
2022/08/23 00:31:50;;;;;;;1.00;1.00;;;;;;;24.57;40.25;101358.50;4955652;28;97137;-48
2022/08/23 00:34:16;;;;;;;1.27;1.17;;;;;;;24.57;40.60;101354.94;4952906;28;97204;-49
2022/08/23 00:36:43;;;;;;;1.27;1.00;;;;;;;24.55;40.29;101352.69;4956282;28;97327;-48
2022/08/23 00:39:10;;;;;;;1.70;0.93;;;;;;;24.54;40.36;101358.91;4954523;28;97462;-48
2022/08/23 00:41:35;;;;;;;1.40;1.07;;;;;;;24.52;40.42;101350.28;4954225;28;97136;-48
2022/08/23 00:49:45;;;;;;;2.10;0.93;;;;;;;24.47;40.53;101352.00;4953075;28;96977;-48
2022/08/23 00:52:35;;;;;;;0.90;0.90;;;;;;;24.46;40.90;101352.59;4954935;28;97704;-48
2022/08/23 00:55:00;;;;;;;1.53;1.07;;;;;;;24.45;40.67;101353.91;4958673;28;100026;-48
2022/08/23 00:57:26;;;;;;;1.30;0.97;;;;;;;24.46;40.52;101353.31;4956520;28;97204;-48
2022/08/23 00:59:52;;;;;;;1.10;1.00;;;;;;;24.44;40.73;101350.31;4954738;28;96799;-48
2022/08/23 01:02:18;;;;;;;1.00;0.90;;;;;;;24.43;40.95;101357.28;4954880;28;98567;-48
2022/08/23 01:04:50;;;;;;;1.20;1.00;;;;;;;24.42;40.71;101352.22;4953869;28;97693;-48
2022/08/23 01:07:33;;;;;;;1.93;0.90;;;;;;;24.40;41.70;101354.84;4956872;28;97029;-48
2022/08/23 01:10:03;;;;;;;1.83;0.90;;;;;;;24.40;41.13;101349.22;4953684;28;97342;-48
2022/08/23 01:12:39;;;;;;;1.20;1.10;;;;;;;24.42;41.46;101352.97;4956169;28;99656;-48
2022/08/23 01:15:12;;;;;;;1.10;1.00;;;;;;;24.41;41.49;101359.94;4952282;28;97687;-48
2022/08/23 01:17:45;;;;;;;1.10;0.80;;;;;;;24.39;41.33;101353.38;4954537;28;97389;-48
2022/08/23 01:20:15;;;;;;;1.17;1.07;;;;;;;24.38;41.30;101354.69;4951197;28;97345;-48
2022/08/23 01:23:06;;;;;;;2.10;0.97;;;;;;;24.34;42.10;101357.91;4953958;28;96711;-48
2022/08/23 01:25:33;;;;;;;1.20;0.93;;;;;;;24.34;41.35;101357.91;4954898;28;101494;-48
2022/08/23 01:27:59;;;;;;;1.00;1.00;;;;;;;24.31;41.22;101355.50;4956791;28;97578;-48
2022/08/23 01:30:31;;;;;;;1.00;0.90;;;;;;;24.28;41.40;101351.00;4954084;28;96715;-48
2022/08/23 01:32:58;;;;;;;1.40;0.97;;;;;;;24.24;41.37;101350.66;4950395;28;97667;-48
2022/08/23 01:35:32;;;;;;;2.17;1.10;;;;;;;24.23;41.71;101355.53;4955664;28;96857;-48
2022/08/23 01:37:58;;;;;;;1.10;1.00;;;;;;;24.21;41.55;101351.81;4952533;28;98330;-48
2022/08/23 01:40:23;;;;;;;2.00;1.20;;;;;;;24.22;41.72;101356.13;4955924;28;96943;-48
2022/08/23 01:42:48;;;;;;;1.77;0.90;;;;;;;24.21;41.75;101360.25;4953720;28;97499;-49
2022/08/23 01:45:14;;;;;;;1.33;0.97;;;;;;;24.21;41.73;101358.19;4957084;28;97306;-48
2022/08/23 01:47:41;;;;;;;3.47;1.40;;;;;;;24.19;42.09;101360.81;4953183;28;101554;-48
2022/08/23 01:50:09;;;;;;;1.33;0.93;;;;;;;24.20;42.04;101358.75;4953140;28;96889;-48
2022/08/23 01:52:36;;;;;;;1.43;1.00;;;;;;;24.20;42.09;101370.00;4953447;28;98042;-48
2022/08/23 01:55:03;;;;;;;2.60;1.10;;;;;;;24.19;42.10;101365.69;4952669;28;96906;-48
2022/08/23 01:57:29;;;;;;;2.03;1.10;;;;;;;24.19;42.20;101362.88;4955578;28;97121;-48
2022/08/23 01:59:56;;;;;;;1.17;0.90;;;;;;;24.17;42.08;101376.75;4953385;28;97172;-48
2022/08/23 02:02:21;;;;;;;1.63;1.10;;;;;;;24.16;42.14;101378.81;4955137;28;97164;-48
2022/08/23 02:04:46;;;;;;;1.00;0.90;;;;;;;24.15;42.10;101370.97;4953789;28;98312;-48
2022/08/23 02:07:12;;;;;;;0.97;0.97;;;;;;;24.13;42.00;101371.53;4954030;28;97289;-48
2022/08/23 02:09:37;;;;;;;1.73;1.00;;;;;;;24.10;42.04;101371.91;4951977;28;104423;-49
2022/08/23 02:12:03;;;;;;;1.07;0.97;;;;;;;24.07;42.04;101365.38;4953140;28;96744;-48
2022/08/23 02:14:28;;;;;;;0.90;0.90;;;;;;;24.03;42.18;101375.47;4953539;28;97324;-48
2022/08/23 02:16:55;;;;;;;1.33;1.00;;;;;;;23.97;42.17;101370.09;4950825;28;96963;-48
2022/08/23 02:19:20;;;;;;;0.80;0.80;;;;;;;23.94;41.84;101371.22;4952993;28;97176;-50
2022/08/23 02:21:46;;;;;;;1.63;0.80;;;;;;;23.92;42.02;101375.94;4955417;28;97203;-48
2022/08/23 02:24:23;;;;;;;1.20;1.10;;;;;;;23.90;42.19;101365.25;4952149;28;97194;-48
2022/08/23 02:26:51;;;;;;;1.10;1.00;;;;;;;23.88;42.14;101369.94;4956051;28;97314;-48
2022/08/23 02:29:19;;;;;;;1.33;1.07;;;;;;;23.85;41.99;101372.56;4954333;28;97416;-48
2022/08/23 02:31:44;;;;;;;2.07;1.20;;;;;;;23.79;42.02;101377.66;4956264;28;97464;-48
2022/08/23 02:34:12;;;;;;;6.30;1.10;;;;;;;23.78;42.50;101375.41;4955620;28;97116;-48
2022/08/23 02:36:38;;;;;;;0.97;0.93;;;;;;;23.77;42.47;101377.47;4953008;28;97259;-48
2022/08/23 02:39:05;;;;;;;1.17;1.10;;;;;;;23.77;42.55;101377.47;4952857;28;97384;-48
2022/08/23 02:41:31;;;;;;;1.73;1.23;;;;;;;23.77;42.47;101380.28;4956564;28;97230;-48
2022/08/23 02:43:57;;;;;;;2.80;1.27;;;;;;;23.77;42.49;101387.97;4951287;28;96891;-48
2022/08/23 02:46:23;;;;;;;0.97;0.87;;;;;;;23.75;42.48;101384.97;4950349;28;96934;-48
2022/08/23 02:48:49;;;;;;;1.00;1.00;;;;;;;23.71;42.38;101379.75;4953670;28;97036;-48
2022/08/23 02:51:15;;;;;;;1.30;1.10;;;;;;;23.70;42.41;101375.44;4953289;28;97317;-48
2022/08/23 02:53:41;;;;;;;2.20;1.17;;;;;;;23.68;42.65;101383.69;4952277;28;97432;-48
2022/08/23 02:56:08;;;;;;;1.87;1.03;;;;;;;23.66;42.59;101383.50;4957693;28;97050;-48
2022/08/23 02:58:33;;;;;;;1.10;1.00;;;;;;;23.63;42.61;101381.81;4956875;28;97364;-48
2022/08/23 03:01:00;;;;;;;2.30;1.37;;;;;;;23.59;42.70;101389.88;4955432;28;96934;-48
2022/08/23 03:03:25;;;;;;;1.40;1.30;;;;;;;23.55;42.57;101386.72;4957820;28;97429;-48
2022/08/23 03:05:51;;;;;;;1.17;0.90;;;;;;;23.52;42.79;101385.06;4956335;28;97311;-48
2022/08/23 03:08:17;;;;;;;2.10;1.27;;;;;;;23.46;42.80;101386.56;4944414;28;97044;-48
2022/08/23 03:10:45;;;;;;;4.83;1.20;;;;;;;23.43;42.90;101398.94;4958081;28;97310;-48
2022/08/23 03:13:10;;;;;;;2.20;1.00;;;;;;;23.38;42.98;101391.44;4955049;28;97089;-48
2022/08/23 03:15:37;;;;;;;1.37;1.10;;;;;;;23.34;42.97;101388.28;4954735;28;97157;-49
2022/08/23 03:18:03;;;;;;;1.83;1.40;;;;;;;23.30;42.98;101390.69;4956363;28;96892;-48
2022/08/23 03:20:28;;;;;;;1.83;1.00;;;;;;;23.25;43.10;101389.56;4957879;28;97252;-48
2022/08/23 03:22:54;;;;;;;1.10;1.00;;;;;;;23.19;43.23;101383.41;4958180;28;96843;-48
2022/08/23 03:25:20;;;;;;;1.23;0.80;;;;;;;23.13;43.33;101385.63;4952423;28;96978;-49
2022/08/23 03:27:45;;;;;;;1.83;1.13;;;;;;;23.08;43.46;101381.72;4955782;28;97208;-49
2022/08/23 03:30:11;;;;;;;2.30;0.90;;;;;;;23.06;43.38;101386.41;4954924;28;103673;-48
2022/08/23 03:32:36;;;;;;;1.43;0.90;;;;;;;23.02;43.64;101391.66;4954826;28;99308;-48
2022/08/23 03:35:04;;;;;;;1.00;1.00;;;;;;;22.99;43.40;101392.78;4953606;28;97308;-49
2022/08/23 03:37:29;;;;;;;1.73;0.97;;;;;;;22.95;43.39;101395.22;4954603;28;97325;-49
2022/08/23 03:39:54;;;;;;;1.30;1.10;;;;;;;22.88;43.36;101396.69;4959174;28;97572;-48
2022/08/23 03:42:20;;;;;;;0.93;0.90;;;;;;;22.80;43.33;101395.94;4956668;28;99957;-48
2022/08/23 03:44:45;;;;;;;2.23;1.60;;;;;;;22.76;43.56;101406.06;4956291;28;98308;-48
2022/08/23 03:47:11;;;;;;;1.03;0.97;;;;;;;22.69;43.49;101401.94;4954367;28;97038;-48
2022/08/23 03:49:37;;;;;;;1.80;1.37;;;;;;;22.66;43.69;101407.91;4945885;28;99743;-48
2022/08/23 03:52:04;;;;;;;1.10;1.00;;;;;;;22.61;43.70;101400.41;4958125;28;97295;-48
2022/08/23 03:54:30;;;;;;;1.00;0.90;;;;;;;22.58;43.71;101398.69;4956151;28;96855;-48
2022/08/23 03:57:01;;;;;;;1.10;0.90;;;;;;;22.53;43.69;101410.84;4957348;28;97106;-48
2022/08/23 03:59:28;;;;;;;1.10;1.00;;;;;;;22.46;43.71;101405.94;4952787;28;97366;-48
2022/08/23 04:01:54;;;;;;;1.10;1.00;;;;;;;22.39;43.80;101399.78;4957721;28;97184;-48
2022/08/23 04:04:20;;;;;;;1.30;1.13;;;;;;;22.34;43.97;101399.97;4955476;28;96914;-48
2022/08/23 04:06:45;;;;;;;1.13;1.00;;;;;;;22.31;44.01;101413.03;4955663;28;97754;-49
2022/08/23 04:09:13;;;;;;;1.80;1.10;;;;;;;22.28;44.08;101411.34;4954676;28;96943;-48
2022/08/23 04:11:38;;;;;;;4.40;1.33;;;;;;;22.25;44.12;101412.47;4954121;28;96940;-48
2022/08/23 04:14:05;;;;;;;1.40;1.13;;;;;;;22.23;44.24;101414.31;4955369;28;96793;-48
2022/08/23 04:16:36;;;;;;;2.20;1.07;;;;;;;22.21;44.08;101420.47;4955660;28;96993;-49
2022/08/23 04:19:04;;;;;;;1.40;1.17;;;;;;;22.18;44.27;101420.84;4952000;28;98840;-49
2022/08/23 04:21:30;;;;;;;1.30;1.20;;;;;;;22.14;44.35;101421.22;4953346;28;96812;-48
2022/08/23 04:23:56;;;;;;;1.83;1.57;;;;;;;22.08;44.21;101420.59;4956386;28;96762;-48
2022/08/23 04:26:22;;;;;;;2.27;1.40;;;;;;;22.07;44.62;101427.53;4952977;28;97131;-48
2022/08/23 04:28:47;;;;;;;1.40;1.30;;;;;;;22.09;44.54;101429.75;4952737;28;97231;-48
2022/08/23 04:31:13;;;;;;;4.30;1.27;;;;;;;22.06;44.60;101426.00;4953291;28;97837;-48
2022/08/23 04:33:39;;;;;;;2.90;1.40;;;;;;;22.06;44.48;101428.09;4955466;28;97169;-48
2022/08/23 04:36:04;;;;;;;1.27;1.23;;;;;;;22.05;44.78;101430.13;4951681;28;97110;-48
2022/08/23 04:38:30;;;;;;;1.33;1.10;;;;;;;22.08;44.81;101445.09;4953642;28;98527;-48
2022/08/23 04:43:40;;;;;;;1.30;1.20;;;;;;;22.11;44.87;101438.38;4956548;28;97064;-48
2022/08/23 04:46:06;;;;;;;1.17;1.10;;;;;;;22.12;44.85;101445.47;4955146;28;97378;-48
2022/08/23 04:48:32;;;;;;;1.23;1.10;;;;;;;22.14;44.92;101451.28;4954589;28;96956;-48
2022/08/23 04:50:58;;;;;;;1.20;1.20;;;;;;;22.15;44.93;101449.97;4953133;28;97201;-50
2022/08/23 04:53:24;;;;;;;1.23;1.13;;;;;;;22.15;44.94;101449.97;4958175;28;96805;-48
2022/08/23 04:55:51;;;;;;;1.80;1.47;;;;;;;22.15;44.90;101439.50;4955353;28;97279;-48
2022/08/23 04:58:17;;;;;;;1.23;1.13;;;;;;;22.16;44.93;101457.09;4954648;28;97219;-48
2022/08/23 05:00:42;;;;;;;1.57;1.00;;;;;;;22.18;44.99;101454.47;4956508;28;97334;-48
2022/08/23 05:03:07;;;;;;;1.00;1.00;;;;;;;22.21;44.92;101461.78;4953853;28;97332;-51
2022/08/23 05:05:33;;;;;;;1.40;1.30;;;;;;;22.23;44.83;101447.97;4953863;28;106488;-48
2022/08/23 05:07:58;;;;;;;0.87;0.87;;;;;;;22.27;44.85;101448.34;4956105;28;97389;-48
2022/08/23 05:10:24;;;;;;;1.63;1.30;;;;;;;22.26;44.92;101444.03;4952900;28;97423;-48
2022/08/23 05:12:49;;;;;;;2.10;1.20;;;;;;;22.27;44.97;101453.97;4954561;28;97146;-48
2022/08/23 05:15:15;;;;;;;1.87;1.10;;;;;;;22.27;45.04;101457.50;4956235;28;97012;-48
2022/08/23 05:17:40;;;;;;;1.07;1.07;;;;;;;22.35;45.06;101461.09;4951232;28;97338;-48
2022/08/23 05:20:07;;;;;;;1.93;1.20;;;;;;;22.41;45.15;101455.28;4955904;28;106846;-48
2022/08/23 05:22:34;;;;;;;1.77;1.43;;;;;;;22.47;44.94;101466.34;4953939;28;96712;-48
2022/08/23 05:24:59;;;;;;;3.30;1.50;;;;;;;22.49;44.94;101463.75;4951193;28;98467;-49
2022/08/23 05:27:24;;;;;;;2.17;1.60;;;;;;;22.49;44.84;101458.13;4952691;28;97355;-48
2022/08/23 05:29:53;;;;;;;1.47;1.37;;;;;;;22.58;44.96;101468.81;4954854;28;101070;-48
2022/08/23 05:32:21;;;;;;;1.27;1.20;;;;;;;22.63;44.90;101465.88;4951874;28;97117;-48
2022/08/23 05:34:47;;;;;;;2.30;1.07;;;;;;;22.67;44.78;101462.72;4948614;28;96983;-48
2022/08/23 05:37:12;;;;;;;3.63;1.20;;;;;;;22.71;44.89;101469.47;4954508;28;96723;-48
2022/08/23 05:39:38;;;;;;;1.43;1.13;;;;;;;22.77;44.90;101466.47;4957137;28;97400;-48
2022/08/23 05:42:09;;;;;;;2.20;1.20;;;;;;;22.85;44.86;101470.03;4958408;28;97281;-48
2022/08/23 05:44:35;;;;;;;2.33;1.13;;;;;;;22.90;44.70;101483.88;4953613;28;97163;-48
2022/08/23 05:47:00;;;;;;;1.30;1.20;;;;;;;22.93;44.92;101476.41;4951496;28;97319;-48
2022/08/23 05:49:26;;;;;;;2.40;1.30;;;;;;;22.97;44.85;101479.59;4957585;28;98870;-48
2022/08/23 05:51:51;;;;;;;1.17;1.00;;;;;;;22.97;44.90;101485.22;4958935;28;97018;-49
2022/08/23 05:54:16;;;;;;;2.43;1.53;;;;;;;23.00;44.85;101489.69;4956603;28;96604;-48
2022/08/23 05:56:42;;;;;;;1.40;1.10;;;;;;;23.03;44.96;101494.94;4956284;28;97468;-48
2022/08/23 05:59:11;;;;;;;1.70;1.50;;;;;;;23.07;45.03;101495.31;4958122;28;98160;-48
2022/08/23 06:01:37;;;;;;;1.53;1.10;;;;;;;23.09;44.76;101500.38;4956945;28;96829;-48
2022/08/23 06:04:06;;;;;;;1.57;1.10;;;;;;;23.10;44.90;101499.81;4954307;28;97087;-48
2022/08/23 06:06:33;;;;;;;1.67;1.30;;;;;;;23.11;44.79;101497.75;4953607;28;97643;-48
2022/08/23 06:08:59;;;;;;;1.20;1.13;;;;;;;23.08;44.73;101499.66;4953034;28;102635;-48
2022/08/23 06:11:26;;;;;;;1.57;1.47;;;;;;;23.09;44.99;101500.38;4949350;28;97414;-48
2022/08/23 06:13:57;;;;;;;1.53;1.23;;;;;;;23.08;45.01;101498.88;4952545;28;96604;-48
2022/08/23 06:16:33;;;;;;;1.30;1.00;;;;;;;23.10;45.32;101499.81;4953954;28;97685;-49
2022/08/23 06:19:03;;;;;;;1.63;1.13;;;;;;;23.10;44.97;101499.81;4949950;28;98408;-48
2022/08/23 06:21:30;;;;;;;1.97;1.27;;;;;;;23.13;45.26;101506.34;4952544;28;96975;-48
2022/08/23 06:23:56;;;;;;;1.40;1.30;;;;;;;23.14;45.32;101505.06;4955958;28;96912;-48
2022/08/23 06:26:29;;;;;;;1.17;1.07;;;;;;;23.13;44.99;101500.00;4953584;28;96866;-48
2022/08/23 06:28:57;;;;;;;1.10;1.00;;;;;;;23.10;45.17;101497.03;4953113;28;97397;-49
2022/08/23 06:34:10;;;;;;;1.63;1.53;;;;;;;23.07;45.42;101514.22;4958235;28;97252;-48
2022/08/23 06:36:36;;;;;;;1.40;1.00;;;;;;;23.08;45.61;101507.31;4957503;28;97343;-48
2022/08/23 06:39:04;;;;;;;1.40;1.30;;;;;;;23.10;45.51;101507.50;4961171;28;97105;-51
2022/08/23 06:41:29;;;;;;;1.33;1.20;;;;;;;23.07;45.54;101503.00;4954055;28;97200;-48
2022/08/23 06:43:54;;;;;;;1.40;1.30;;;;;;;23.05;45.50;101511.97;4955462;28;97149;-48
2022/08/23 06:46:22;;;;;;;5.50;1.13;;;;;;;23.06;45.67;101504.31;4953620;28;102067;-48
2022/08/23 06:48:49;;;;;;;1.20;1.10;;;;;;;23.08;45.47;101513.69;4954405;28;97309;-48
2022/08/23 06:51:26;;;;;;;1.30;1.20;;;;;;;23.13;45.65;101523.97;4959650;28;97187;-48
2022/08/23 06:53:55;;;;;;;2.90;1.40;;;;;;;23.19;45.39;101523.03;4959518;28;96938;-48
2022/08/23 06:56:23;;;;;;;2.47;1.50;;;;;;;23.28;45.29;101522.50;4955649;28;97390;-48
2022/08/23 06:58:48;;;;;;;1.53;1.40;;;;;;;23.32;45.36;101520.81;4955882;28;97649;-49
2022/08/23 07:01:29;;;;;;;0.80;0.80;;;;;;;23.37;45.54;101521.97;4954363;28;96909;-48
2022/08/23 07:03:56;;;;;;;2.60;1.33;;;;;;;23.36;45.22;101518.41;4956308;28;97039;-49
2022/08/23 07:06:22;;;;;;;1.20;1.10;;;;;;;23.38;45.45;101548.72;4956481;28;97549;-48
2022/08/23 07:08:49;;;;;;;1.20;1.10;;;;;;;23.41;45.43;101514.66;4955546;28;97225;-48
2022/08/23 07:11:14;;;;;;;1.53;1.10;;;;;;;23.46;45.31;101516.50;4955499;28;96932;-48
2022/08/23 07:13:40;;;;;;;1.40;1.30;;;;;;;23.54;45.24;101510.91;4956508;28;97228;-48
2022/08/23 07:16:05;;;;;;;3.57;1.53;;;;;;;23.61;45.32;101512.97;4956042;28;97145;-48
2022/08/23 07:18:31;;;;;;;1.70;1.53;;;;;;;23.70;45.25;101515.19;4957184;28;97735;-48
2022/08/23 07:21:02;;;;;;;1.83;1.27;;;;;;;23.77;44.73;101511.63;4954375;28;97285;-48
2022/08/23 07:23:32;;;;;;;1.47;1.20;;;;;;;23.84;44.97;101506.00;4958056;28;96750;-48
2022/08/23 07:25:59;;;;;;;1.20;0.90;;;;;;;23.98;44.41;101514.22;4953823;28;97400;-48
2022/08/23 07:28:26;;;;;;;1.00;0.77;;;;;;;24.09;44.59;101516.66;4957961;28;96898;-48
2022/08/23 07:30:52;;;;;;;1.60;1.00;;;;;;;24.18;44.01;101510.44;4956561;28;96957;-48
2022/08/23 07:33:17;;;;;;;1.00;0.90;;;;;;;24.28;44.28;101512.09;4958605;28;97251;-48
2022/08/23 07:35:47;;;;;;;1.17;0.80;;;;;;;24.41;43.67;101523.09;4953202;28;97167;-48
2022/08/23 07:38:14;;;;;;;1.53;0.83;;;;;;;24.54;43.27;101516.47;4957440;28;97134;-48
2022/08/23 07:40:40;;;;;;;1.00;0.83;;;;;;;24.67;42.92;101524.66;4956377;28;97561;-48
2022/08/23 07:43:05;;;;;;;0.87;0.80;;;;;;;24.78;42.92;101526.31;4959091;28;97112;-48
2022/08/23 07:45:30;;;;;;;2.50;1.03;;;;;;;24.91;42.39;101526.06;4956752;28;97130;-49
2022/08/23 07:47:56;;;;;;;1.33;1.10;;;;;;;24.99;42.58;101527.50;4960565;28;97212;-48
2022/08/23 07:50:21;;;;;;;0.60;0.60;;;;;;;25.07;42.04;101528.22;4957056;28;97033;-48
2022/08/23 07:52:46;;;;;;;0.67;0.60;;;;;;;25.20;41.62;101530.00;4956041;28;96987;-48
2022/08/23 07:55:12;;;;;;;0.70;0.67;;;;;;;25.30;41.53;101520.34;4954920;28;97307;-48
2022/08/23 07:57:37;;;;;;;0.80;0.60;;;;;;;25.43;41.69;101527.00;4956468;28;97396;-48
2022/08/23 08:00:05;;;;;;;1.20;0.87;;;;;;;25.54;41.21;101529.38;4956819;28;96822;-48
2022/08/23 08:02:30;;;;;;;0.70;0.70;;;;;;;25.66;40.86;101530.41;4960254;28;96813;-47
2022/08/23 08:04:56;;;;;;;0.80;0.80;;;;;;;25.77;40.67;101533.50;4957323;28;97605;-49
2022/08/23 08:07:21;;;;;;;1.57;0.70;;;;;;;25.88;40.74;101526.63;4956736;28;97549;-47
2022/08/23 08:09:47;;;;;;;0.70;0.57;;;;;;;25.97;40.13;101528.78;4957365;28;97112;-47
2022/08/23 08:12:12;;;;;;;1.03;0.80;;;;;;;26.09;39.97;101529.03;4958297;28;97008;-49
2022/08/23 08:14:38;;;;;;;1.20;0.90;;;;;;;26.22;39.84;101535.09;4953903;28;97549;-48
2022/08/23 08:17:04;;;;;;;0.60;0.60;;;;;;;26.33;39.71;101528.97;4952249;28;97069;-48
2022/08/23 08:19:29;;;;;;;0.80;0.50;;;;;;;26.47;39.58;101532.91;4955015;28;96802;-47
2022/08/23 08:21:54;;;;;;;0.80;0.60;;;;;;;26.58;39.25;101535.22;4957903;28;101497;-47
2022/08/23 08:24:20;;;;;;;0.80;0.50;;;;;;;26.71;39.13;101540.50;4954732;28;97384;-46
2022/08/23 08:26:46;;;;;;;0.70;0.67;;;;;;;26.85;38.94;101529.63;4954268;28;97220;-48
2022/08/23 08:29:12;;;;;;;0.70;0.67;;;;;;;26.98;38.67;101534.13;4953066;28;97459;-49
2022/08/23 08:31:40;;;;;;;0.70;0.63;;;;;;;27.05;38.55;101533.28;4955619;28;96859;-47
2022/08/23 08:34:06;;;;;;;0.70;0.50;;;;;;;27.17;38.29;101531.41;4957426;28;102049;-49
2022/08/23 08:36:39;;;;;;;0.60;0.50;;;;;;;27.31;37.79;101538.16;4951656;28;97304;-51
2022/08/23 08:39:10;;;;;;;1.10;0.60;;;;;;;27.42;38.05;101534.78;4956005;28;98164;-49
2022/08/23 08:42:00;;;;;;;0.70;0.50;;;;;;;27.50;37.74;101537.50;4958383;28;97115;-49
2022/08/23 08:44:40;;;;;;;0.70;0.50;;;;;;;27.60;36.99;101527.72;4955770;28;101036;-48
2022/08/23 08:47:12;;;;;;;0.60;0.40;;;;;;;27.68;37.61;101533.97;4956983;28;96740;-49
2022/08/23 08:50:01;;;;;;;0.83;0.73;;;;;;;27.83;36.95;101533.69;4953649;28;97046;-49
2022/08/23 08:52:31;;;;;;;1.03;0.60;;;;;;;28.00;37.19;101530.75;4957582;28;98298;-55
2022/08/23 08:55:21;;;;;;;0.97;0.60;;;;;;;28.16;36.53;101537.63;4957926;28;97178;-49
2022/08/23 08:57:48;;;;;;;2.07;0.60;;;;;;;28.31;36.97;101533.72;4946226;28;100142;-47
2022/08/23 09:00:24;;;;;;;0.60;0.50;;;;;;;28.47;35.68;101537.00;4956166;28;96754;-49
2022/08/23 09:02:50;;;;;;;0.70;0.57;;;;;;;28.58;36.32;101530.75;4948073;28;96972;-49
2022/08/23 09:05:19;;;;;;;1.13;0.50;;;;;;;28.72;36.33;101528.94;4954885;28;97558;-49
2022/08/23 09:08:02;;;;;;;0.80;0.77;;;;;;;28.88;35.37;101533.66;4955221;28;97591;-48
2022/08/23 09:10:43;;;;;;;0.80;0.70;;;;;;;29.06;35.48;101536.28;4959300;28;98839;-48
2022/08/23 09:13:46;;;;;;;0.70;0.50;;;;;;;29.18;34.92;101525.84;4956859;28;97096;-49
2022/08/23 09:16:39;;;;;;;0.80;0.60;;;;;;;29.32;34.84;101532.47;4953752;28;100539;-48
2022/08/23 09:19:06;;;;;;;1.43;0.60;;;;;;;29.44;35.36;101534.03;4955177;28;100935;-50
2022/08/23 09:21:58;;;;;;;0.70;0.63;;;;;;;29.56;33.82;101531.28;4954076;28;97110;-50
2022/08/23 09:24:25;;;;;;;1.10;0.50;;;;;;;29.66;34.78;101529.16;4956127;28;97052;-49
2022/08/23 09:26:52;;;;;;;0.70;0.50;;;;;;;29.72;34.45;101534.47;4958544;28;103040;-49
2022/08/23 09:29:31;;;;;;;0.80;0.70;;;;;;;29.80;33.87;101532.94;4958709;28;97583;-49
2022/08/23 09:32:25;;;;;;;0.80;0.47;;;;;;;29.83;33.81;101531.00;4959201;28;96973;-49
2022/08/23 09:34:50;;;;;;;2.40;0.60;;;;;;;29.87;34.00;101534.09;4950673;28;97265;-49
2022/08/23 09:37:21;;;;;;;0.67;0.60;;;;;;;29.97;34.10;101526.28;4958082;28;97152;-49
2022/08/23 09:40:17;;;;;;;0.87;0.60;;;;;;;30.09;33.50;101518.53;4956741;28;97220;-46
2022/08/23 09:42:43;;;;;;;0.80;0.50;;;;;;;30.21;33.60;101519.31;4952635;28;96800;-49
2022/08/23 09:45:30;;;;;;;0.80;0.50;;;;;;;30.30;32.73;101515.66;4953457;28;97397;-50
2022/08/23 09:47:56;;;;;;;1.43;0.60;;;;;;;30.39;33.59;101523.38;4956731;28;101945;-49
2022/08/23 09:50:21;;;;;;;0.73;0.63;;;;;;;30.41;33.19;101525.59;4954870;28;97252;-50
2022/08/23 09:52:47;;;;;;;0.60;0.50;;;;;;;30.45;32.92;101520.19;4957791;28;96733;-47
2022/08/23 09:55:50;;;;;;;1.00;0.80;;;;;;;30.50;32.21;101524.75;4953652;28;97183;-49
2022/08/23 09:58:22;;;;;;;1.43;0.63;;;;;;;30.63;32.84;101513.56;4917798;28;101887;-49
2022/08/23 10:01:17;;;;;;;1.03;0.50;;;;;;;30.70;32.05;101515.44;4954191;28;97330;-49
2022/08/23 10:03:43;;;;;;;1.23;0.80;;;;;;;30.72;32.29;101514.81;4953475;28;97326;-49
2022/08/23 10:06:14;;;;;;;0.60;0.53;;;;;;;30.69;32.23;101507.53;4956446;28;96941;-50
2022/08/23 10:08:52;;;;;;;0.70;0.60;;;;;;;30.74;31.59;101512.09;4956569;28;97474;-49
2022/08/23 10:11:28;;;;;;;1.10;0.73;;;;;;;30.84;31.92;101504.22;4956011;28;96991;-48
2022/08/23 10:13:54;;;;;;;0.80;0.60;;;;;;;30.90;31.94;101505.38;4960296;28;97214;-49
2022/08/23 10:16:38;;;;;;;0.90;0.50;;;;;;;30.92;32.24;101502.66;4956814;28;97053;-49
2022/08/23 10:19:19;;;;;;;0.80;0.60;;;;;;;30.96;31.75;101508.56;4960547;28;96924;-49
2022/08/23 10:22:17;;;;;;;1.83;1.10;;;;;;;31.00;31.43;101505.97;4962869;28;99975;-55
2022/08/23 10:25:04;;;;;;;0.80;0.60;;;;;;;31.01;30.84;101493.25;4958522;28;97050;-50
2022/08/23 10:31:06;;;;;;;2.10;0.50;;;;;;;31.01;31.11;101509.56;4958885;28;101187;-49
2022/08/23 10:33:52;;;;;;;0.70;0.50;;;;;;;31.03;30.40;101493.38;4958556;28;100176;-49
2022/08/23 10:36:20;;;;;;;2.30;0.90;;;;;;;31.08;31.50;101500.78;4958263;28;96722;-48
2022/08/23 10:38:51;;;;;;;0.80;0.50;;;;;;;31.14;31.35;101496.81;4959512;28;97447;-49
2022/08/23 10:42:02;;;;;;;0.70;0.57;;;;;;;31.18;30.77;101491.38;4958478;28;97486;-48
2022/08/23 10:44:42;;;;;;;1.23;0.80;;;;;;;31.29;31.27;101499.16;4956183;28;100174;-47
2022/08/23 10:47:28;;;;;;;0.80;0.80;;;;;;;31.38;30.97;101493.34;4953844;28;96908;-49
2022/08/23 10:49:56;;;;;;;0.90;0.50;;;;;;;31.49;31.42;101486.19;4950222;28;97704;-49
2022/08/23 10:52:29;;;;;;;2.70;0.60;;;;;;;31.59;31.12;101486.78;4962859;28;97703;-49
2022/08/23 10:55:05;;;;;;;0.70;0.70;;;;;;;31.67;31.10;101485.13;4958143;28;97323;-49
2022/08/23 10:57:40;;;;;;;0.80;0.60;;;;;;;31.77;30.43;101491.44;4955606;28;96791;-49
2022/08/23 11:00:20;;;;;;;0.80;0.70;;;;;;;31.85;30.45;101504.66;4959072;28;97449;-50
2022/08/23 11:02:53;;;;;;;1.10;0.53;;;;;;;31.89;30.35;101485.69;4958832;28;101701;-50
2022/08/23 11:05:32;;;;;;;0.70;0.50;;;;;;;31.92;30.59;101478.00;4957446;28;101470;-51
2022/08/23 11:08:09;;;;;;;0.90;0.50;;;;;;;31.93;30.46;101491.63;4955624;28;97101;-49
2022/08/23 11:10:40;;;;;;;0.70;0.53;;;;;;;32.03;30.58;101482.94;4958902;28;96872;-49
2022/08/23 11:13:12;;;;;;;1.90;0.73;;;;;;;32.15;30.26;101472.25;4956976;28;98035;-47
2022/08/23 11:15:42;;;;;;;1.07;0.60;;;;;;;32.24;29.95;101480.59;4956688;28;96528;-49
2022/08/23 11:18:25;;;;;;;0.70;0.50;;;;;;;32.29;30.38;101481.56;4960826;28;97016;-49
2022/08/23 11:20:51;;;;;;;2.50;0.73;;;;;;;32.32;30.00;101491.72;4960446;28;96837;-49
2022/08/23 11:23:58;;;;;;;1.13;0.70;;;;;;;32.31;29.78;101479.59;4960932;28;97446;-49
2022/08/23 11:26:27;;;;;;;0.70;0.50;;;;;;;32.40;29.42;101475.81;4910717;28;102403;-47
2022/08/23 11:28:55;;;;;;;1.90;0.53;;;;;;;32.42;29.78;101490.19;4955542;28;97215;-49
2022/08/23 11:31:30;;;;;;;1.37;0.70;;;;;;;32.54;29.53;101484.44;4960165;28;96882;-49
2022/08/23 11:34:04;;;;;;;0.80;0.70;;;;;;;32.71;29.02;101489.66;4958707;28;96709;-49
2022/08/23 11:36:31;;;;;;;0.90;0.50;;;;;;;32.86;29.48;101485.44;4953984;28;98373;-49
2022/08/23 11:38:56;;;;;;;0.70;0.70;;;;;;;32.97;29.23;101473.94;4957470;28;97200;-48
2022/08/23 11:41:28;;;;;;;1.53;0.60;;;;;;;33.09;28.75;101488.88;4959683;28;96726;-50
2022/08/23 11:43:56;;;;;;;0.70;0.50;;;;;;;33.04;28.28;101475.03;4957327;28;100880;-50
2022/08/23 11:46:24;;;;;;;0.70;0.60;;;;;;;32.97;28.05;101473.94;4960750;28;101516;-49
2022/08/23 11:49:25;;;;;;;0.90;0.80;;;;;;;32.93;26.06;101462.34;4956393;28;97010;-49
2022/08/23 11:51:56;;;;;;;1.10;0.90;;;;;;;33.04;28.55;101475.03;4954973;28;96821;-49